sensor_id;sensor_type;location;lat;lon;timestamp;P1;durP1;ratioP1;P2;durP2;ratioP2
21030;SDS011;61072;47.808;7.636;2023-04-24T00:00:06;1.05;;;0.40;;
21030;SDS011;61072;47.808;7.636;2023-04-24T00:02:35;1.25;;;0.52;;
21030;SDS011;61072;47.808;7.636;2023-04-24T00:05:06;1.70;;;0.50;;
21030;SDS011;61072;47.808;7.636;2023-04-24T00:07:34;1.65;;;0.40;;
21030;SDS011;61072;47.808;7.636;2023-04-24T00:10:01;0.35;;;0.30;;
21030;SDS011;61072;47.808;7.636;2023-04-24T00:12:27;1.75;;;0.60;;
21030;SDS011;61072;47.808;7.636;2023-04-24T00:14:54;3.35;;;0.57;;
21030;SDS011;61072;47.808;7.636;2023-04-24T00:17:21;0.40;;;0.40;;
21030;SDS011;61072;47.808;7.636;2023-04-24T00:19:48;1.55;;;0.40;;
21030;SDS011;61072;47.808;7.636;2023-04-24T00:22:17;1.83;;;0.43;;
21030;SDS011;61072;47.808;7.636;2023-04-24T00:24:44;0.50;;;0.30;;
21030;SDS011;61072;47.808;7.636;2023-04-24T00:27:11;0.68;;;0.30;;
21030;SDS011;61072;47.808;7.636;2023-04-24T00:29:37;1.05;;;0.40;;
21030;SDS011;61072;47.808;7.636;2023-04-24T00:32:04;1.30;;;0.47;;
21030;SDS011;61072;47.808;7.636;2023-04-24T00:34:31;1.95;;;0.40;;
21030;SDS011;61072;47.808;7.636;2023-04-24T00:36:58;1.75;;;0.43;;
21030;SDS011;61072;47.808;7.636;2023-04-24T00:39:25;0.80;;;0.32;;
21030;SDS011;61072;47.808;7.636;2023-04-24T00:41:52;1.85;;;0.40;;
21030;SDS011;61072;47.808;7.636;2023-04-24T00:44:19;1.40;;;0.40;;
21030;SDS011;61072;47.808;7.636;2023-04-24T00:46:46;0.60;;;0.30;;
21030;SDS011;61072;47.808;7.636;2023-04-24T00:49:13;0.30;;;0.30;;
21030;SDS011;61072;47.808;7.636;2023-04-24T00:51:40;0.43;;;0.30;;
21030;SDS011;61072;47.808;7.636;2023-04-24T00:54:12;1.55;;;0.55;;
21030;SDS011;61072;47.808;7.636;2023-04-24T00:56:39;1.33;;;0.43;;
21030;SDS011;61072;47.808;7.636;2023-04-24T00:59:07;0.40;;;0.38;;
21030;SDS011;61072;47.808;7.636;2023-04-24T01:01:35;0.52;;;0.40;;
21030;SDS011;61072;47.808;7.636;2023-04-24T01:04:02;1.40;;;0.52;;
21030;SDS011;61072;47.808;7.636;2023-04-24T01:06:29;1.02;;;0.30;;
21030;SDS011;61072;47.808;7.636;2023-04-24T01:08:57;0.63;;;0.30;;
21030;SDS011;61072;47.808;7.636;2023-04-24T01:11:26;1.00;;;0.57;;
21030;SDS011;61072;47.808;7.636;2023-04-24T01:13:53;1.10;;;0.60;;
21030;SDS011;61072;47.808;7.636;2023-04-24T01:16:19;0.77;;;0.40;;
21030;SDS011;61072;47.808;7.636;2023-04-24T01:18:49;0.22;;;0.22;;
21030;SDS011;61072;47.808;7.636;2023-04-24T01:21:16;0.60;;;0.40;;
21030;SDS011;61072;47.808;7.636;2023-04-24T01:23:44;1.42;;;0.60;;
21030;SDS011;61072;47.808;7.636;2023-04-24T01:26:11;1.00;;;0.38;;
21030;SDS011;61072;47.808;7.636;2023-04-24T01:28:39;0.70;;;0.43;;
21030;SDS011;61072;47.808;7.636;2023-04-24T01:31:06;4.55;;;0.60;;
21030;SDS011;61072;47.808;7.636;2023-04-24T01:33:33;0.75;;;0.52;;
21030;SDS011;61072;47.808;7.636;2023-04-24T01:36:00;1.45;;;0.38;;
21030;SDS011;61072;47.808;7.636;2023-04-24T01:38:27;1.48;;;0.40;;
21030;SDS011;61072;47.808;7.636;2023-04-24T01:40:53;0.30;;;0.30;;
21030;SDS011;61072;47.808;7.636;2023-04-24T01:43:20;0.73;;;0.50;;
21030;SDS011;61072;47.808;7.636;2023-04-24T01:45:48;2.75;;;0.60;;
21030;SDS011;61072;47.808;7.636;2023-04-24T01:48:14;0.73;;;0.40;;
21030;SDS011;61072;47.808;7.636;2023-04-24T01:50:41;1.50;;;0.55;;
21030;SDS011;61072;47.808;7.636;2023-04-24T01:53:08;0.70;;;0.40;;
21030;SDS011;61072;47.808;7.636;2023-04-24T01:55:35;0.82;;;0.40;;
21030;SDS011;61072;47.808;7.636;2023-04-24T01:58:01;2.78;;;0.52;;
21030;SDS011;61072;47.808;7.636;2023-04-24T02:00:28;0.77;;;0.40;;
21030;SDS011;61072;47.808;7.636;2023-04-24T02:02:55;1.58;;;0.68;;
21030;SDS011;61072;47.808;7.636;2023-04-24T02:05:22;1.05;;;0.50;;
21030;SDS011;61072;47.808;7.636;2023-04-24T02:07:49;1.00;;;0.55;;
21030;SDS011;61072;47.808;7.636;2023-04-24T02:10:15;2.50;;;0.60;;
21030;SDS011;61072;47.808;7.636;2023-04-24T02:12:42;0.45;;;0.38;;
21030;SDS011;61072;47.808;7.636;2023-04-24T02:15:09;1.55;;;0.32;;
21030;SDS011;61072;47.808;7.636;2023-04-24T02:17:36;3.10;;;0.50;;
21030;SDS011;61072;47.808;7.636;2023-04-24T02:20:03;2.03;;;0.55;;
21030;SDS011;61072;47.808;7.636;2023-04-24T02:22:31;1.00;;;0.50;;
21030;SDS011;61072;47.808;7.636;2023-04-24T02:24:58;1.67;;;0.70;;
21030;SDS011;61072;47.808;7.636;2023-04-24T02:27:25;1.10;;;0.68;;
21030;SDS011;61072;47.808;7.636;2023-04-24T02:29:51;2.35;;;0.60;;
21030;SDS011;61072;47.808;7.636;2023-04-24T02:32:18;1.27;;;0.60;;
21030;SDS011;61072;47.808;7.636;2023-04-24T02:34:45;1.98;;;0.50;;
21030;SDS011;61072;47.808;7.636;2023-04-24T02:37:12;1.83;;;0.60;;
21030;SDS011;61072;47.808;7.636;2023-04-24T02:39:39;2.45;;;0.70;;
21030;SDS011;61072;47.808;7.636;2023-04-24T02:42:06;2.15;;;0.52;;
21030;SDS011;61072;47.808;7.636;2023-04-24T02:44:34;2.08;;;0.63;;
21030;SDS011;61072;47.808;7.636;2023-04-24T02:47:01;3.20;;;0.52;;
21030;SDS011;61072;47.808;7.636;2023-04-24T02:49:27;1.55;;;0.55;;
21030;SDS011;61072;47.808;7.636;2023-04-24T02:51:54;4.93;;;0.70;;
21030;SDS011;61072;47.808;7.636;2023-04-24T02:54:21;3.33;;;0.98;;
21030;SDS011;61072;47.808;7.636;2023-04-24T02:56:47;3.35;;;0.80;;
21030;SDS011;61072;47.808;7.636;2023-04-24T02:59:14;2.95;;;0.63;;
21030;SDS011;61072;47.808;7.636;2023-04-24T03:01:41;2.97;;;0.60;;
21030;SDS011;61072;47.808;7.636;2023-04-24T03:04:07;1.73;;;0.60;;
21030;SDS011;61072;47.808;7.636;2023-04-24T03:06:34;2.53;;;0.70;;
21030;SDS011;61072;47.808;7.636;2023-04-24T03:09:01;1.52;;;0.55;;
21030;SDS011;61072;47.808;7.636;2023-04-24T03:11:29;4.13;;;0.73;;
21030;SDS011;61072;47.808;7.636;2023-04-24T03:13:56;2.03;;;0.50;;
21030;SDS011;61072;47.808;7.636;2023-04-24T03:16:22;2.53;;;0.50;;
21030;SDS011;61072;47.808;7.636;2023-04-24T03:18:49;2.35;;;0.68;;
21030;SDS011;61072;47.808;7.636;2023-04-24T03:21:16;3.47;;;0.90;;
21030;SDS011;61072;47.808;7.636;2023-04-24T03:23:42;3.33;;;2.00;;
21030;SDS011;61072;47.808;7.636;2023-04-24T03:26:09;1.88;;;0.73;;
21030;SDS011;61072;47.808;7.636;2023-04-24T03:28:36;2.90;;;0.80;;
21030;SDS011;61072;47.808;7.636;2023-04-24T03:31:03;1.80;;;0.80;;
21030;SDS011;61072;47.808;7.636;2023-04-24T03:33:30;5.80;;;0.85;;
21030;SDS011;61072;47.808;7.636;2023-04-24T03:35:56;3.50;;;0.90;;
21030;SDS011;61072;47.808;7.636;2023-04-24T03:38:23;2.15;;;0.80;;
21030;SDS011;61072;47.808;7.636;2023-04-24T03:40:50;2.70;;;0.60;;
21030;SDS011;61072;47.808;7.636;2023-04-24T03:43:16;2.45;;;0.68;;
21030;SDS011;61072;47.808;7.636;2023-04-24T03:45:43;3.63;;;0.70;;
21030;SDS011;61072;47.808;7.636;2023-04-24T03:48:10;2.78;;;0.93;;
21030;SDS011;61072;47.808;7.636;2023-04-24T03:50:36;3.95;;;0.70;;
21030;SDS011;61072;47.808;7.636;2023-04-24T03:53:03;0.75;;;0.52;;
21030;SDS011;61072;47.808;7.636;2023-04-24T03:55:30;0.70;;;0.70;;
21030;SDS011;61072;47.808;7.636;2023-04-24T03:57:57;1.95;;;0.80;;
21030;SDS011;61072;47.808;7.636;2023-04-24T04:00:23;2.20;;;0.70;;
21030;SDS011;61072;47.808;7.636;2023-04-24T04:02:50;4.55;;;1.10;;
21030;SDS011;61072;47.808;7.636;2023-04-24T04:05:17;1.70;;;0.80;;
21030;SDS011;61072;47.808;7.636;2023-04-24T04:07:44;2.45;;;0.90;;
21030;SDS011;61072;47.808;7.636;2023-04-24T04:10:11;2.10;;;0.77;;
21030;SDS011;61072;47.808;7.636;2023-04-24T04:12:37;1.95;;;0.90;;
21030;SDS011;61072;47.808;7.636;2023-04-24T04:15:04;0.65;;;0.65;;
21030;SDS011;61072;47.808;7.636;2023-04-24T04:17:32;2.80;;;0.80;;
21030;SDS011;61072;47.808;7.636;2023-04-24T04:19:59;2.72;;;0.75;;
21030;SDS011;61072;47.808;7.636;2023-04-24T04:22:27;2.22;;;0.77;;
21030;SDS011;61072;47.808;7.636;2023-04-24T04:24:53;1.73;;;0.77;;
21030;SDS011;61072;47.808;7.636;2023-04-24T04:27:20;1.83;;;0.90;;
21030;SDS011;61072;47.808;7.636;2023-04-24T04:29:47;1.27;;;0.85;;
21030;SDS011;61072;47.808;7.636;2023-04-24T04:32:14;3.60;;;1.10;;
21030;SDS011;61072;47.808;7.636;2023-04-24T04:34:42;2.15;;;1.00;;
21030;SDS011;61072;47.808;7.636;2023-04-24T04:37:09;2.35;;;0.90;;
21030;SDS011;61072;47.808;7.636;2023-04-24T04:39:37;2.25;;;0.95;;
21030;SDS011;61072;47.808;7.636;2023-04-24T04:42:04;1.80;;;1.10;;
21030;SDS011;61072;47.808;7.636;2023-04-24T04:44:30;2.25;;;1.10;;
21030;SDS011;61072;47.808;7.636;2023-04-24T04:46:57;3.90;;;1.20;;
21030;SDS011;61072;47.808;7.636;2023-04-24T04:49:25;2.55;;;1.30;;
21030;SDS011;61072;47.808;7.636;2023-04-24T04:51:54;2.80;;;1.10;;
21030;SDS011;61072;47.808;7.636;2023-04-24T04:54:21;1.35;;;0.80;;
21030;SDS011;61072;47.808;7.636;2023-04-24T04:56:49;1.25;;;0.93;;
21030;SDS011;61072;47.808;7.636;2023-04-24T04:59:16;1.73;;;1.15;;
21030;SDS011;61072;47.808;7.636;2023-04-24T05:01:43;4.03;;;1.45;;
21030;SDS011;61072;47.808;7.636;2023-04-24T05:04:10;3.67;;;1.50;;
21030;SDS011;61072;47.808;7.636;2023-04-24T05:06:37;2.53;;;1.27;;
21030;SDS011;61072;47.808;7.636;2023-04-24T05:09:03;1.90;;;1.10;;
21030;SDS011;61072;47.808;7.636;2023-04-24T05:11:30;3.55;;;1.60;;
21030;SDS011;61072;47.808;7.636;2023-04-24T05:13:57;3.75;;;1.50;;
21030;SDS011;61072;47.808;7.636;2023-04-24T05:16:23;2.70;;;1.50;;
21030;SDS011;61072;47.808;7.636;2023-04-24T05:18:50;4.93;;;1.58;;
21030;SDS011;61072;47.808;7.636;2023-04-24T05:21:17;3.92;;;2.28;;
21030;SDS011;61072;47.808;7.636;2023-04-24T05:23:43;3.42;;;1.30;;
21030;SDS011;61072;47.808;7.636;2023-04-24T05:26:10;3.17;;;1.63;;
21030;SDS011;61072;47.808;7.636;2023-04-24T05:28:37;5.57;;;1.25;;
21030;SDS011;61072;47.808;7.636;2023-04-24T05:31:03;2.10;;;1.48;;
21030;SDS011;61072;47.808;7.636;2023-04-24T05:33:30;4.65;;;1.77;;
21030;SDS011;61072;47.808;7.636;2023-04-24T05:35:57;3.20;;;1.55;;
21030;SDS011;61072;47.808;7.636;2023-04-24T05:38:24;5.47;;;1.92;;
21030;SDS011;61072;47.808;7.636;2023-04-24T05:40:51;6.80;;;1.83;;
21030;SDS011;61072;47.808;7.636;2023-04-24T05:43:18;4.03;;;1.30;;
21030;SDS011;61072;47.808;7.636;2023-04-24T05:45:44;6.97;;;1.60;;
21030;SDS011;61072;47.808;7.636;2023-04-24T05:48:11;2.67;;;1.67;;
21030;SDS011;61072;47.808;7.636;2023-04-24T05:50:38;1.95;;;1.23;;
21030;SDS011;61072;47.808;7.636;2023-04-24T05:53:06;3.55;;;1.52;;
21030;SDS011;61072;47.808;7.636;2023-04-24T05:55:33;5.18;;;1.38;;
21030;SDS011;61072;47.808;7.636;2023-04-24T05:58:00;2.00;;;1.45;;
21030;SDS011;61072;47.808;7.636;2023-04-24T06:00:26;2.88;;;1.60;;
21030;SDS011;61072;47.808;7.636;2023-04-24T06:02:54;3.42;;;1.60;;
21030;SDS011;61072;47.808;7.636;2023-04-24T06:05:21;2.28;;;1.63;;
21030;SDS011;61072;47.808;7.636;2023-04-24T06:07:48;4.35;;;1.90;;
21030;SDS011;61072;47.808;7.636;2023-04-24T06:10:16;3.22;;;2.00;;
21030;SDS011;61072;47.808;7.636;2023-04-24T06:12:43;2.60;;;1.80;;
21030;SDS011;61072;47.808;7.636;2023-04-24T06:15:09;2.05;;;1.65;;
21030;SDS011;61072;47.808;7.636;2023-04-24T06:17:36;2.75;;;1.70;;
21030;SDS011;61072;47.808;7.636;2023-04-24T06:20:03;9.50;;;5.57;;
21030;SDS011;61072;47.808;7.636;2023-04-24T06:22:32;3.38;;;2.72;;
21030;SDS011;61072;47.808;7.636;2023-04-24T06:24:59;4.10;;;2.38;;
21030;SDS011;61072;47.808;7.636;2023-04-24T06:27:26;3.30;;;2.10;;
21030;SDS011;61072;47.808;7.636;2023-04-24T06:29:53;2.42;;;1.65;;
21030;SDS011;61072;47.808;7.636;2023-04-24T06:32:22;2.55;;;1.48;;
21030;SDS011;61072;47.808;7.636;2023-04-24T06:34:53;2.08;;;1.20;;
21030;SDS011;61072;47.808;7.636;2023-04-24T06:37:19;2.83;;;1.58;;
21030;SDS011;61072;47.808;7.636;2023-04-24T06:39:47;2.28;;;1.30;;
21030;SDS011;61072;47.808;7.636;2023-04-24T06:42:13;2.92;;;1.60;;
21030;SDS011;61072;47.808;7.636;2023-04-24T06:44:40;4.38;;;2.85;;
21030;SDS011;61072;47.808;7.636;2023-04-24T06:47:07;2.20;;;1.35;;
21030;SDS011;61072;47.808;7.636;2023-04-24T06:49:39;2.58;;;1.35;;
21030;SDS011;61072;47.808;7.636;2023-04-24T06:52:07;2.83;;;1.58;;
21030;SDS011;61072;47.808;7.636;2023-04-24T06:54:33;5.38;;;2.10;;
21030;SDS011;61072;47.808;7.636;2023-04-24T06:57:00;2.17;;;1.40;;
21030;SDS011;61072;47.808;7.636;2023-04-24T06:59:28;3.67;;;1.10;;
21030;SDS011;61072;47.808;7.636;2023-04-24T07:01:56;2.63;;;1.50;;
21030;SDS011;61072;47.808;7.636;2023-04-24T07:04:23;2.78;;;1.40;;
21030;SDS011;61072;47.808;7.636;2023-04-24T07:06:52;6.40;;;1.40;;
21030;SDS011;61072;47.808;7.636;2023-04-24T07:09:23;2.63;;;1.50;;
21030;SDS011;61072;47.808;7.636;2023-04-24T07:11:51;3.63;;;1.40;;
21030;SDS011;61072;47.808;7.636;2023-04-24T07:14:19;1.60;;;1.05;;
21030;SDS011;61072;47.808;7.636;2023-04-24T07:16:46;3.47;;;1.50;;
21030;SDS011;61072;47.808;7.636;2023-04-24T07:19:13;4.60;;;1.55;;
21030;SDS011;61072;47.808;7.636;2023-04-24T07:21:40;4.25;;;1.30;;
21030;SDS011;61072;47.808;7.636;2023-04-24T07:24:07;4.80;;;1.80;;
21030;SDS011;61072;47.808;7.636;2023-04-24T07:26:38;2.33;;;1.17;;
21030;SDS011;61072;47.808;7.636;2023-04-24T07:29:06;2.13;;;1.58;;
21030;SDS011;61072;47.808;7.636;2023-04-24T07:31:33;7.15;;;1.60;;
21030;SDS011;61072;47.808;7.636;2023-04-24T07:34:00;4.22;;;1.65;;
21030;SDS011;61072;47.808;7.636;2023-04-24T07:36:27;5.47;;;1.70;;
21030;SDS011;61072;47.808;7.636;2023-04-24T07:38:54;3.72;;;1.33;;
21030;SDS011;61072;47.808;7.636;2023-04-24T07:41:22;6.07;;;2.00;;
21030;SDS011;61072;47.808;7.636;2023-04-24T07:43:50;3.88;;;1.80;;
21030;SDS011;61072;47.808;7.636;2023-04-24T07:46:18;5.40;;;2.17;;
21030;SDS011;61072;47.808;7.636;2023-04-24T07:48:46;6.32;;;2.05;;
21030;SDS011;61072;47.808;7.636;2023-04-24T07:51:23;4.35;;;1.70;;
21030;SDS011;61072;47.808;7.636;2023-04-24T07:53:52;2.50;;;1.67;;
21030;SDS011;61072;47.808;7.636;2023-04-24T07:56:19;1.95;;;1.40;;
21030;SDS011;61072;47.808;7.636;2023-04-24T07:58:46;3.42;;;2.15;;
21030;SDS011;61072;47.808;7.636;2023-04-24T08:01:13;2.00;;;1.45;;
21030;SDS011;61072;47.808;7.636;2023-04-24T08:03:40;4.47;;;1.60;;
21030;SDS011;61072;47.808;7.636;2023-04-24T08:06:07;4.10;;;1.20;;
21030;SDS011;61072;47.808;7.636;2023-04-24T08:08:34;5.03;;;2.33;;
21030;SDS011;61072;47.808;7.636;2023-04-24T08:11:01;5.78;;;1.63;;
21030;SDS011;61072;47.808;7.636;2023-04-24T08:13:28;4.30;;;1.63;;
21030;SDS011;61072;47.808;7.636;2023-04-24T08:15:55;3.63;;;1.38;;
21030;SDS011;61072;47.808;7.636;2023-04-24T08:18:23;4.82;;;1.73;;
21030;SDS011;61072;47.808;7.636;2023-04-24T08:20:49;3.53;;;1.60;;
21030;SDS011;61072;47.808;7.636;2023-04-24T08:23:16;6.28;;;1.45;;
21030;SDS011;61072;47.808;7.636;2023-04-24T08:25:43;6.00;;;1.60;;
21030;SDS011;61072;47.808;7.636;2023-04-24T08:28:09;5.85;;;1.45;;
21030;SDS011;61072;47.808;7.636;2023-04-24T08:30:36;3.85;;;1.73;;
21030;SDS011;61072;47.808;7.636;2023-04-24T08:33:04;2.40;;;1.50;;
21030;SDS011;61072;47.808;7.636;2023-04-24T08:35:31;3.65;;;1.25;;
21030;SDS011;61072;47.808;7.636;2023-04-24T08:37:58;6.65;;;1.50;;
21030;SDS011;61072;47.808;7.636;2023-04-24T08:40:27;6.18;;;1.63;;
21030;SDS011;61072;47.808;7.636;2023-04-24T08:42:57;3.28;;;1.20;;
21030;SDS011;61072;47.808;7.636;2023-04-24T08:45:25;9.02;;;1.50;;
21030;SDS011;61072;47.808;7.636;2023-04-24T08:47:52;2.97;;;1.20;;
21030;SDS011;61072;47.808;7.636;2023-04-24T08:50:24;3.50;;;1.42;;
21030;SDS011;61072;47.808;7.636;2023-04-24T08:52:51;4.05;;;1.80;;
21030;SDS011;61072;47.808;7.636;2023-04-24T08:55:19;7.22;;;1.35;;
21030;SDS011;61072;47.808;7.636;2023-04-24T08:57:51;3.95;;;1.45;;
21030;SDS011;61072;47.808;7.636;2023-04-24T09:00:19;1.85;;;1.25;;
21030;SDS011;61072;47.808;7.636;2023-04-24T09:02:48;7.75;;;1.40;;
21030;SDS011;61072;47.808;7.636;2023-04-24T09:05:16;4.80;;;1.55;;
21030;SDS011;61072;47.808;7.636;2023-04-24T09:07:45;4.43;;;1.50;;
21030;SDS011;61072;47.808;7.636;2023-04-24T09:10:15;4.38;;;1.52;;
21030;SDS011;61072;47.808;7.636;2023-04-24T09:12:42;7.78;;;1.55;;
21030;SDS011;61072;47.808;7.636;2023-04-24T09:15:10;6.53;;;1.50;;
21030;SDS011;61072;47.808;7.636;2023-04-24T09:17:37;3.45;;;1.20;;
21030;SDS011;61072;47.808;7.636;2023-04-24T09:20:04;2.20;;;1.30;;
21030;SDS011;61072;47.808;7.636;2023-04-24T09:22:31;3.83;;;1.42;;
21030;SDS011;61072;47.808;7.636;2023-04-24T09:25:05;3.30;;;1.58;;
21030;SDS011;61072;47.808;7.636;2023-04-24T09:27:36;4.80;;;1.60;;
21030;SDS011;61072;47.808;7.636;2023-04-24T09:30:07;3.63;;;1.70;;
21030;SDS011;61072;47.808;7.636;2023-04-24T09:32:34;2.60;;;1.25;;
21030;SDS011;61072;47.808;7.636;2023-04-24T09:37:37;3.83;;;1.25;;
21030;SDS011;61072;47.808;7.636;2023-04-24T09:42:55;2.10;;;1.10;;
21030;SDS011;61072;47.808;7.636;2023-04-24T09:45:35;3.13;;;1.17;;
21030;SDS011;61072;47.808;7.636;2023-04-24T09:48:03;3.65;;;1.45;;
21030;SDS011;61072;47.808;7.636;2023-04-24T09:50:30;4.25;;;1.25;;
21030;SDS011;61072;47.808;7.636;2023-04-24T09:53:04;3.67;;;1.30;;
21030;SDS011;61072;47.808;7.636;2023-04-24T09:55:38;3.88;;;1.77;;
21030;SDS011;61072;47.808;7.636;2023-04-24T09:58:07;4.78;;;1.23;;
21030;SDS011;61072;47.808;7.636;2023-04-24T10:00:34;2.58;;;1.02;;
21030;SDS011;61072;47.808;7.636;2023-04-24T10:03:01;2.30;;;1.00;;
21030;SDS011;61072;47.808;7.636;2023-04-24T10:05:33;3.53;;;0.90;;
21030;SDS011;61072;47.808;7.636;2023-04-24T10:08:03;2.38;;;0.90;;
21030;SDS011;61072;47.808;7.636;2023-04-24T10:10:37;3.05;;;1.20;;
21030;SDS011;61072;47.808;7.636;2023-04-24T10:13:09;2.00;;;0.90;;
21030;SDS011;61072;47.808;7.636;2023-04-24T10:15:37;1.70;;;1.20;;
21030;SDS011;61072;47.808;7.636;2023-04-24T10:18:05;3.97;;;0.85;;
21030;SDS011;61072;47.808;7.636;2023-04-24T10:20:35;4.45;;;1.02;;
21030;SDS011;61072;47.808;7.636;2023-04-24T10:23:03;5.18;;;0.98;;
21030;SDS011;61072;47.808;7.636;2023-04-24T10:25:30;2.55;;;0.90;;
21030;SDS011;61072;47.808;7.636;2023-04-24T10:27:59;3.95;;;1.50;;
21030;SDS011;61072;47.808;7.636;2023-04-24T10:30:28;3.58;;;1.10;;
21030;SDS011;61072;47.808;7.636;2023-04-24T10:32:56;3.75;;;1.17;;
21030;SDS011;61072;47.808;7.636;2023-04-24T10:35:23;3.08;;;1.17;;
21030;SDS011;61072;47.808;7.636;2023-04-24T10:37:56;2.83;;;1.10;;
21030;SDS011;61072;47.808;7.636;2023-04-24T10:40:26;2.88;;;1.20;;
21030;SDS011;61072;47.808;7.636;2023-04-24T10:42:56;1.30;;;0.90;;
21030;SDS011;61072;47.808;7.636;2023-04-24T10:45:24;3.05;;;1.17;;
21030;SDS011;61072;47.808;7.636;2023-04-24T10:48:25;2.60;;;1.30;;
21030;SDS011;61072;47.808;7.636;2023-04-24T10:50:53;6.05;;;1.30;;
21030;SDS011;61072;47.808;7.636;2023-04-24T10:53:21;3.70;;;1.77;;
21030;SDS011;61072;47.808;7.636;2023-04-24T10:55:50;2.67;;;1.48;;
21030;SDS011;61072;47.808;7.636;2023-04-24T10:58:24;3.97;;;1.63;;
21030;SDS011;61072;47.808;7.636;2023-04-24T11:01:06;2.90;;;1.20;;
21030;SDS011;61072;47.808;7.636;2023-04-24T11:03:34;3.08;;;1.80;;
21030;SDS011;61072;47.808;7.636;2023-04-24T11:06:05;1.40;;;0.90;;
21030;SDS011;61072;47.808;7.636;2023-04-24T11:08:37;3.78;;;1.10;;
21030;SDS011;61072;47.808;7.636;2023-04-24T11:11:09;4.03;;;1.65;;
21030;SDS011;61072;47.808;7.636;2023-04-24T11:16:26;3.88;;;1.40;;
21030;SDS011;61072;47.808;7.636;2023-04-24T11:19:05;3.25;;;1.40;;
21030;SDS011;61072;47.808;7.636;2023-04-24T11:21:57;6.68;;;1.20;;
21030;SDS011;61072;47.808;7.636;2023-04-24T11:27:16;2.78;;;1.40;;
21030;SDS011;61072;47.808;7.636;2023-04-24T11:34:58;5.22;;;1.52;;
21030;SDS011;61072;47.808;7.636;2023-04-24T11:37:40;2.05;;;1.10;;
21030;SDS011;61072;47.808;7.636;2023-04-24T11:40:10;3.95;;;1.20;;
21030;SDS011;61072;47.808;7.636;2023-04-24T11:42:39;2.10;;;1.10;;
21030;SDS011;61072;47.808;7.636;2023-04-24T11:45:07;2.42;;;1.25;;
21030;SDS011;61072;47.808;7.636;2023-04-24T11:47:35;3.22;;;1.10;;
21030;SDS011;61072;47.808;7.636;2023-04-24T11:50:04;5.18;;;1.27;;
21030;SDS011;61072;47.808;7.636;2023-04-24T11:52:33;1.20;;;0.90;;
21030;SDS011;61072;47.808;7.636;2023-04-24T11:55:03;3.92;;;1.13;;
21030;SDS011;61072;47.808;7.636;2023-04-24T11:57:30;3.20;;;1.10;;
21030;SDS011;61072;47.808;7.636;2023-04-24T12:00:01;1.27;;;1.02;;
21030;SDS011;61072;47.808;7.636;2023-04-24T12:02:30;4.63;;;1.55;;
21030;SDS011;61072;47.808;7.636;2023-04-24T12:04:57;1.15;;;1.00;;
21030;SDS011;61072;47.808;7.636;2023-04-24T12:07:24;1.63;;;0.80;;
21030;SDS011;61072;47.808;7.636;2023-04-24T12:09:57;3.60;;;1.30;;
21030;SDS011;61072;47.808;7.636;2023-04-24T12:12:26;2.28;;;1.20;;
21030;SDS011;61072;47.808;7.636;2023-04-24T12:14:55;4.55;;;1.20;;
21030;SDS011;61072;47.808;7.636;2023-04-24T12:17:24;3.65;;;1.35;;
21030;SDS011;61072;47.808;7.636;2023-04-24T12:20:05;3.55;;;1.08;;
21030;SDS011;61072;47.808;7.636;2023-04-24T12:22:53;2.45;;;0.98;;
21030;SDS011;61072;47.808;7.636;2023-04-24T12:25:22;5.53;;;1.65;;
21030;SDS011;61072;47.808;7.636;2023-04-24T12:30:29;3.60;;;1.50;;
21030;SDS011;61072;47.808;7.636;2023-04-24T12:32:58;4.75;;;1.27;;
21030;SDS011;61072;47.808;7.636;2023-04-24T12:35:30;2.15;;;1.13;;
21030;SDS011;61072;47.808;7.636;2023-04-24T12:38:09;1.83;;;1.20;;
21030;SDS011;61072;47.808;7.636;2023-04-24T12:40:39;2.53;;;1.42;;
21030;SDS011;61072;47.808;7.636;2023-04-24T12:43:14;4.63;;;1.92;;
21030;SDS011;61072;47.808;7.636;2023-04-24T12:45:42;3.50;;;1.80;;
21030;SDS011;61072;47.808;7.636;2023-04-24T12:48:09;2.58;;;1.27;;
21030;SDS011;61072;47.808;7.636;2023-04-24T12:50:36;3.17;;;1.00;;
21030;SDS011;61072;47.808;7.636;2023-04-24T12:53:03;2.55;;;1.27;;
21030;SDS011;61072;47.808;7.636;2023-04-24T12:55:30;2.80;;;1.60;;
21030;SDS011;61072;47.808;7.636;2023-04-24T12:57:57;6.13;;;1.80;;
21030;SDS011;61072;47.808;7.636;2023-04-24T13:00:24;3.65;;;1.08;;
21030;SDS011;61072;47.808;7.636;2023-04-24T13:02:51;4.30;;;1.13;;
21030;SDS011;61072;47.808;7.636;2023-04-24T13:05:18;1.85;;;1.30;;
21030;SDS011;61072;47.808;7.636;2023-04-24T13:07:44;4.10;;;1.40;;
21030;SDS011;61072;47.808;7.636;2023-04-24T13:10:11;3.58;;;1.40;;
21030;SDS011;61072;47.808;7.636;2023-04-24T13:12:39;4.30;;;1.50;;
21030;SDS011;61072;47.808;7.636;2023-04-24T13:15:06;2.15;;;1.20;;
21030;SDS011;61072;47.808;7.636;2023-04-24T13:17:33;2.15;;;1.02;;
21030;SDS011;61072;47.808;7.636;2023-04-24T13:20:00;2.00;;;1.00;;
21030;SDS011;61072;47.808;7.636;2023-04-24T13:22:27;2.42;;;0.85;;
21030;SDS011;61072;47.808;7.636;2023-04-24T13:24:53;5.70;;;0.80;;
21030;SDS011;61072;47.808;7.636;2023-04-24T13:27:20;2.40;;;0.95;;
21030;SDS011;61072;47.808;7.636;2023-04-24T13:29:47;1.58;;;0.90;;
21030;SDS011;61072;47.808;7.636;2023-04-24T13:32:14;3.10;;;1.10;;
21030;SDS011;61072;47.808;7.636;2023-04-24T13:34:41;3.88;;;1.23;;
21030;SDS011;61072;47.808;7.636;2023-04-24T13:37:08;2.83;;;1.00;;
21030;SDS011;61072;47.808;7.636;2023-04-24T13:39:34;2.67;;;1.05;;
21030;SDS011;61072;47.808;7.636;2023-04-24T13:42:01;3.80;;;1.30;;
21030;SDS011;61072;47.808;7.636;2023-04-24T13:44:30;2.53;;;0.88;;
21030;SDS011;61072;47.808;7.636;2023-04-24T13:46:57;3.13;;;1.27;;
21030;SDS011;61072;47.808;7.636;2023-04-24T13:49:24;3.05;;;1.80;;
21030;SDS011;61072;47.808;7.636;2023-04-24T13:51:52;3.45;;;1.83;;
21030;SDS011;61072;47.808;7.636;2023-04-24T13:54:20;4.00;;;1.83;;
21030;SDS011;61072;47.808;7.636;2023-04-24T13:56:46;4.40;;;1.48;;
21030;SDS011;61072;47.808;7.636;2023-04-24T13:59:13;4.35;;;1.63;;
21030;SDS011;61072;47.808;7.636;2023-04-24T14:01:40;3.13;;;1.50;;
21030;SDS011;61072;47.808;7.636;2023-04-24T14:04:07;3.30;;;1.88;;
21030;SDS011;61072;47.808;7.636;2023-04-24T14:06:34;2.83;;;1.58;;
21030;SDS011;61072;47.808;7.636;2023-04-24T14:09:00;2.10;;;1.25;;
21030;SDS011;61072;47.808;7.636;2023-04-24T14:11:27;1.85;;;1.10;;
21030;SDS011;61072;47.808;7.636;2023-04-24T14:13:54;3.00;;;0.90;;
21030;SDS011;61072;47.808;7.636;2023-04-24T14:16:24;1.60;;;1.10;;
21030;SDS011;61072;47.808;7.636;2023-04-24T14:18:51;1.85;;;1.15;;
21030;SDS011;61072;47.808;7.636;2023-04-24T14:21:18;2.50;;;1.10;;
21030;SDS011;61072;47.808;7.636;2023-04-24T14:23:44;3.33;;;1.25;;
21030;SDS011;61072;47.808;7.636;2023-04-24T14:26:12;2.05;;;1.30;;
21030;SDS011;61072;47.808;7.636;2023-04-24T14:28:38;3.33;;;1.23;;
21030;SDS011;61072;47.808;7.636;2023-04-24T14:31:05;2.97;;;1.77;;
21030;SDS011;61072;47.808;7.636;2023-04-24T14:33:32;2.72;;;1.92;;
21030;SDS011;61072;47.808;7.636;2023-04-24T14:35:59;3.65;;;1.40;;
21030;SDS011;61072;47.808;7.636;2023-04-24T14:38:26;2.47;;;1.50;;
21030;SDS011;61072;47.808;7.636;2023-04-24T14:40:52;3.60;;;1.58;;
21030;SDS011;61072;47.808;7.636;2023-04-24T14:43:22;5.03;;;1.30;;
21030;SDS011;61072;47.808;7.636;2023-04-24T14:45:49;3.88;;;1.45;;
21030;SDS011;61072;47.808;7.636;2023-04-24T14:48:16;4.47;;;1.40;;
21030;SDS011;61072;47.808;7.636;2023-04-24T14:50:43;3.50;;;1.65;;
21030;SDS011;61072;47.808;7.636;2023-04-24T14:53:11;4.97;;;1.50;;
21030;SDS011;61072;47.808;7.636;2023-04-24T14:55:38;4.40;;;1.38;;
21030;SDS011;61072;47.808;7.636;2023-04-24T14:58:04;5.85;;;1.58;;
21030;SDS011;61072;47.808;7.636;2023-04-24T15:00:31;3.25;;;1.40;;
21030;SDS011;61072;47.808;7.636;2023-04-24T15:02:58;3.97;;;1.65;;
21030;SDS011;61072;47.808;7.636;2023-04-24T15:05:26;4.50;;;1.52;;
21030;SDS011;61072;47.808;7.636;2023-04-24T15:07:53;6.03;;;1.70;;
21030;SDS011;61072;47.808;7.636;2023-04-24T15:10:20;3.35;;;1.35;;